Terminal Aerodrome Forecast
Issued by NWS Springfield, MO

Home | Current Version | Previous Version | Text Only | Print | Product List | Glossary On
Versions: 1 2 3 4 5 6 7 8 9 10 11 12 13 14 15 16 17 18 19 20 21 22 23 24 25 26 27 28 29 30 31 32 33 34 35
283
FTUS43 KSGF 270520
TAFSGF
TAF
KSGF 270520Z 2706/2806 29010KT 6SM -DZ OVC009
     FM270800 30006KT P6SM OVC015
     FM271100 30007KT P6SM BKN030
     FM271300 27004KT P6SM SCT200
     FM272300 14007KT P6SM BKN200=

USA.gov is the U.S. government's official web portal to all federal, state and local government web resources and services.